sensor_id;sensor_type;location;lat;lon;timestamp;pressure;altitude;pressure_sealevel;temperature;humidity
55576;BME280;41437;45.478;9.116;2022-09-09T00:02:49;99403.44;;;22.10;84.84
55576;BME280;41437;45.478;9.116;2022-09-09T00:05:59;99397.09;;;22.01;85.79
55576;BME280;41437;45.478;9.116;2022-09-09T00:09:07;99400.28;;;21.99;86.52
55576;BME280;41437;45.478;9.116;2022-09-09T00:12:17;99390.66;;;21.88;87.79
55576;BME280;41437;45.478;9.116;2022-09-09T00:15:24;99390.28;;;21.90;88.00
55576;BME280;41437;45.478;9.116;2022-09-09T00:18:29;99382.72;;;21.90;88.20
55576;BME280;41437;45.478;9.116;2022-09-09T00:21:35;99387.25;;;21.82;88.94
55576;BME280;41437;45.478;9.116;2022-09-09T00:24:41;99382.94;;;21.85;88.63
55576;BME280;41437;45.478;9.116;2022-09-09T00:27:47;99375.78;;;21.75;90.14
55576;BME280;41437;45.478;9.116;2022-09-09T00:30:49;99375.31;;;21.73;90.23
55576;BME280;41437;45.478;9.116;2022-09-09T00:33:50;99374.28;;;21.78;90.25
55576;BME280;41437;45.478;9.116;2022-09-09T00:36:54;99369.00;;;21.76;90.66
55576;BME280;41437;45.478;9.116;2022-09-09T00:39:59;99364.25;;;21.77;91.22
55576;BME280;41437;45.478;9.116;2022-09-09T00:43:16;99359.19;;;21.70;92.00
55576;BME280;41437;45.478;9.116;2022-09-09T00:46:37;99352.97;;;21.65;92.92
55576;BME280;41437;45.478;9.116;2022-09-09T00:49:52;99338.16;;;21.64;93.03
55576;BME280;41437;45.478;9.116;2022-09-09T00:53:05;99344.66;;;21.56;94.01
55576;BME280;41437;45.478;9.116;2022-09-09T00:56:14;99331.91;;;21.46;94.37
55576;BME280;41437;45.478;9.116;2022-09-09T00:59:26;99332.16;;;21.53;94.62
55576;BME280;41437;45.478;9.116;2022-09-09T01:02:33;99328.06;;;21.51;95.24
55576;BME280;41437;45.478;9.116;2022-09-09T01:05:44;99324.44;;;21.50;95.06
55576;BME280;41437;45.478;9.116;2022-09-09T01:09:03;99333.41;;;21.44;96.22
55576;BME280;41437;45.478;9.116;2022-09-09T01:12:11;99323.03;;;21.44;96.00
55576;BME280;41437;45.478;9.116;2022-09-09T01:15:21;99309.00;;;21.44;95.76
55576;BME280;41437;45.478;9.116;2022-09-09T01:18:27;99312.63;;;21.45;96.40
55576;BME280;41437;45.478;9.116;2022-09-09T01:21:38;99322.19;;;21.44;96.13
55576;BME280;41437;45.478;9.116;2022-09-09T01:24:45;99309.38;;;21.43;96.35
55576;BME280;41437;45.478;9.116;2022-09-09T01:27:54;99312.06;;;21.51;95.90
55576;BME280;41437;45.478;9.116;2022-09-09T01:30:56;99310.41;;;21.50;95.50
55576;BME280;41437;45.478;9.116;2022-09-09T01:33:58;99312.06;;;21.51;95.88
55576;BME280;41437;45.478;9.116;2022-09-09T01:37:02;99311.84;;;21.56;95.25
55576;BME280;41437;45.478;9.116;2022-09-09T01:40:07;99310.53;;;21.54;95.90
55576;BME280;41437;45.478;9.116;2022-09-09T01:43:10;99308.78;;;21.49;96.17
55576;BME280;41437;45.478;9.116;2022-09-09T01:46:12;99301.91;;;21.47;96.28
55576;BME280;41437;45.478;9.116;2022-09-09T01:49:15;99290.09;;;21.53;95.40
55576;BME280;41437;45.478;9.116;2022-09-09T01:52:17;99299.56;;;21.49;95.66
55576;BME280;41437;45.478;9.116;2022-09-09T01:55:26;99312.16;;;21.43;96.21
55576;BME280;41437;45.478;9.116;2022-09-09T01:58:40;99305.16;;;21.49;95.65
55576;BME280;41437;45.478;9.116;2022-09-09T02:01:57;99305.56;;;21.60;95.39
55576;BME280;41437;45.478;9.116;2022-09-09T02:05:08;99319.31;;;21.52;95.95
55576;BME280;41437;45.478;9.116;2022-09-09T02:08:17;99327.97;;;21.60;95.12
55576;BME280;41437;45.478;9.116;2022-09-09T02:11:22;99326.00;;;21.60;95.44
55576;BME280;41437;45.478;9.116;2022-09-09T02:14:27;99330.97;;;21.54;95.30
55576;BME280;41437;45.478;9.116;2022-09-09T02:17:34;99330.16;;;21.54;95.82
55576;BME280;41437;45.478;9.116;2022-09-09T02:20:38;99321.63;;;21.50;95.70
55576;BME280;41437;45.478;9.116;2022-09-09T02:23:42;99322.47;;;21.51;95.45
55576;BME280;41437;45.478;9.116;2022-09-09T02:26:46;99314.16;;;21.42;95.58
55576;BME280;41437;45.478;9.116;2022-09-09T02:29:51;99310.41;;;21.38;96.21
55576;BME280;41437;45.478;9.116;2022-09-09T02:32:56;99314.47;;;21.41;96.10
55576;BME280;41437;45.478;9.116;2022-09-09T02:35:59;99307.59;;;21.38;96.66
55576;BME280;41437;45.478;9.116;2022-09-09T02:39:05;99295.34;;;21.43;95.69
55576;BME280;41437;45.478;9.116;2022-09-09T02:42:08;99302.94;;;21.42;95.44
55576;BME280;41437;45.478;9.116;2022-09-09T02:45:14;99300.22;;;21.33;96.05
55576;BME280;41437;45.478;9.116;2022-09-09T02:48:21;99305.34;;;21.31;96.36
55576;BME280;41437;45.478;9.116;2022-09-09T02:51:32;99305.47;;;21.35;95.96
55576;BME280;41437;45.478;9.116;2022-09-09T02:54:38;99306.78;;;21.38;96.26
55576;BME280;41437;45.478;9.116;2022-09-09T02:57:40;99309.47;;;21.34;96.02
55576;BME280;41437;45.478;9.116;2022-09-09T03:00:46;99308.97;;;21.32;95.96
55576;BME280;41437;45.478;9.116;2022-09-09T03:03:48;99306.66;;;21.34;95.82
55576;BME280;41437;45.478;9.116;2022-09-09T03:06:49;99311.09;;;21.35;95.75
55576;BME280;41437;45.478;9.116;2022-09-09T03:09:51;99313.06;;;21.35;95.90
55576;BME280;41437;45.478;9.116;2022-09-09T03:12:55;99318.38;;;21.27;98.36
55576;BME280;41437;45.478;9.116;2022-09-09T03:15:58;99318.53;;;21.10;100.00
55576;BME280;41437;45.478;9.116;2022-09-09T03:19:00;99312.81;;;21.06;100.00
55576;BME280;41437;45.478;9.116;2022-09-09T03:22:01;99296.34;;;21.05;100.00
55576;BME280;41437;45.478;9.116;2022-09-09T03:25:05;99279.34;;;20.89;100.00
55576;BME280;41437;45.478;9.116;2022-09-09T03:28:06;99289.97;;;20.83;100.00
55576;BME280;41437;45.478;9.116;2022-09-09T03:31:10;99297.97;;;20.73;100.00
55576;BME280;41437;45.478;9.116;2022-09-09T03:34:11;99305.72;;;20.67;100.00
55576;BME280;41437;45.478;9.116;2022-09-09T03:37:13;99313.59;;;20.53;100.00
55576;BME280;41437;45.478;9.116;2022-09-09T03:40:15;99325.38;;;20.58;100.00
55576;BME280;41437;45.478;9.116;2022-09-09T03:43:18;99337.84;;;20.70;100.00
55576;BME280;41437;45.478;9.116;2022-09-09T03:46:23;99337.16;;;20.73;100.00
55576;BME280;41437;45.478;9.116;2022-09-09T03:49:25;99344.25;;;20.91;100.00
55576;BME280;41437;45.478;9.116;2022-09-09T03:52:28;99339.34;;;20.88;100.00
55576;BME280;41437;45.478;9.116;2022-09-09T03:55:30;99324.38;;;20.84;100.00
55576;BME280;41437;45.478;9.116;2022-09-09T03:58:33;99319.94;;;20.83;100.00
55576;BME280;41437;45.478;9.116;2022-09-09T04:01:36;99313.88;;;20.81;100.00
55576;BME280;41437;45.478;9.116;2022-09-09T04:04:38;99322.00;;;20.74;100.00
55576;BME280;41437;45.478;9.116;2022-09-09T04:07:39;99305.19;;;20.53;100.00
55576;BME280;41437;45.478;9.116;2022-09-09T04:10:41;99301.06;;;20.50;100.00
55576;BME280;41437;45.478;9.116;2022-09-09T04:13:43;99290.41;;;20.44;100.00
55576;BME280;41437;45.478;9.116;2022-09-09T04:16:46;99283.84;;;20.40;100.00
55576;BME280;41437;45.478;9.116;2022-09-09T04:19:47;99284.00;;;20.43;100.00
55576;BME280;41437;45.478;9.116;2022-09-09T04:22:49;99278.94;;;20.37;100.00
55576;BME280;41437;45.478;9.116;2022-09-09T04:25:53;99289.81;;;20.38;100.00
55576;BME280;41437;45.478;9.116;2022-09-09T04:28:55;99293.13;;;20.31;100.00
55576;BME280;41437;45.478;9.116;2022-09-09T04:31:58;99286.03;;;20.34;100.00
55576;BME280;41437;45.478;9.116;2022-09-09T04:35:00;99290.19;;;20.28;100.00
55576;BME280;41437;45.478;9.116;2022-09-09T04:38:01;99300.22;;;20.29;100.00
55576;BME280;41437;45.478;9.116;2022-09-09T04:41:05;99301.72;;;20.26;100.00
55576;BME280;41437;45.478;9.116;2022-09-09T04:44:07;99319.13;;;20.32;100.00
55576;BME280;41437;45.478;9.116;2022-09-09T04:47:11;99316.50;;;20.27;100.00
55576;BME280;41437;45.478;9.116;2022-09-09T04:50:14;99321.34;;;20.18;100.00
55576;BME280;41437;45.478;9.116;2022-09-09T04:53:16;99328.31;;;20.12;100.00
55576;BME280;41437;45.478;9.116;2022-09-09T04:56:18;99333.09;;;20.02;100.00
55576;BME280;41437;45.478;9.116;2022-09-09T04:59:20;99334.94;;;19.98;100.00
55576;BME280;41437;45.478;9.116;2022-09-09T05:02:23;99352.00;;;20.05;100.00
55576;BME280;41437;45.478;9.116;2022-09-09T05:05:24;99357.09;;;20.12;100.00
55576;BME280;41437;45.478;9.116;2022-09-09T05:08:26;99363.19;;;20.05;100.00
55576;BME280;41437;45.478;9.116;2022-09-09T05:11:29;99360.19;;;20.11;100.00
55576;BME280;41437;45.478;9.116;2022-09-09T05:14:33;99355.38;;;20.20;100.00
55576;BME280;41437;45.478;9.116;2022-09-09T05:17:37;99352.25;;;20.21;100.00
55576;BME280;41437;45.478;9.116;2022-09-09T05:20:38;99355.88;;;20.22;100.00
55576;BME280;41437;45.478;9.116;2022-09-09T05:23:42;99354.75;;;20.14;100.00
55576;BME280;41437;45.478;9.116;2022-09-09T05:26:44;99359.69;;;20.17;100.00
55576;BME280;41437;45.478;9.116;2022-09-09T05:29:46;99348.66;;;20.21;100.00
55576;BME280;41437;45.478;9.116;2022-09-09T05:32:49;99355.06;;;20.21;100.00
55576;BME280;41437;45.478;9.116;2022-09-09T05:35:55;99365.25;;;20.26;100.00
55576;BME280;41437;45.478;9.116;2022-09-09T05:38:57;99370.50;;;20.27;100.00
55576;BME280;41437;45.478;9.116;2022-09-09T05:41:59;99383.00;;;20.30;100.00
55576;BME280;41437;45.478;9.116;2022-09-09T05:45:01;99371.59;;;20.35;100.00
55576;BME280;41437;45.478;9.116;2022-09-09T05:48:05;99383.75;;;20.39;100.00
55576;BME280;41437;45.478;9.116;2022-09-09T05:51:10;99371.59;;;20.35;100.00
55576;BME280;41437;45.478;9.116;2022-09-09T05:54:12;99379.78;;;20.49;100.00
55576;BME280;41437;45.478;9.116;2022-09-09T05:57:15;99386.69;;;20.51;100.00
55576;BME280;41437;45.478;9.116;2022-09-09T06:00:17;99378.91;;;20.57;100.00
55576;BME280;41437;45.478;9.116;2022-09-09T06:03:20;99379.78;;;20.49;100.00
55576;BME280;41437;45.478;9.116;2022-09-09T06:06:25;99375.41;;;20.30;100.00
55576;BME280;41437;45.478;9.116;2022-09-09T06:09:27;99372.63;;;20.30;100.00
55576;BME280;41437;45.478;9.116;2022-09-09T06:12:30;99378.91;;;20.19;100.00
55576;BME280;41437;45.478;9.116;2022-09-09T06:15:33;99382.41;;;20.16;100.00
55576;BME280;41437;45.478;9.116;2022-09-09T06:18:36;99372.19;;;20.11;100.00
55576;BME280;41437;45.478;9.116;2022-09-09T06:21:37;99385.34;;;20.19;100.00
55576;BME280;41437;45.478;9.116;2022-09-09T06:24:40;99395.03;;;20.22;100.00
55576;BME280;41437;45.478;9.116;2022-09-09T06:27:41;99403.28;;;20.18;100.00
55576;BME280;41437;45.478;9.116;2022-09-09T06:30:43;99394.41;;;20.16;100.00
55576;BME280;41437;45.478;9.116;2022-09-09T06:33:46;99401.97;;;20.24;98.91
55576;BME280;41437;45.478;9.116;2022-09-09T06:36:48;99405.25;;;20.18;98.31
55576;BME280;41437;45.478;9.116;2022-09-09T06:39:49;99410.38;;;20.45;97.13
55576;BME280;41437;45.478;9.116;2022-09-09T06:42:51;99406.66;;;20.71;94.80
55576;BME280;41437;45.478;9.116;2022-09-09T06:45:54;99415.97;;;20.83;95.39
55576;BME280;41437;45.478;9.116;2022-09-09T06:48:58;99416.44;;;21.27;91.88
55576;BME280;41437;45.478;9.116;2022-09-09T06:52:00;99418.44;;;21.27;91.89
55576;BME280;41437;45.478;9.116;2022-09-09T06:55:02;99428.44;;;21.37;89.63
55576;BME280;41437;45.478;9.116;2022-09-09T06:58:07;99424.81;;;21.36;89.17
55576;BME280;41437;45.478;9.116;2022-09-09T07:01:11;99427.47;;;21.32;91.31
55576;BME280;41437;45.478;9.116;2022-09-09T07:04:15;99437.09;;;21.65;89.41
55576;BME280;41437;45.478;9.116;2022-09-09T07:07:16;99432.63;;;21.64;89.41
55576;BME280;41437;45.478;9.116;2022-09-09T07:10:35;99419.06;;;21.53;88.78
55576;BME280;41437;45.478;9.116;2022-09-09T07:13:37;99431.31;;;21.82;87.62
55576;BME280;41437;45.478;9.116;2022-09-09T07:16:39;99434.84;;;21.91;87.81
55576;BME280;41437;45.478;9.116;2022-09-09T07:19:42;99430.78;;;22.01;86.98
55576;BME280;41437;45.478;9.116;2022-09-09T07:22:43;99422.25;;;22.09;85.19
55576;BME280;41437;45.478;9.116;2022-09-09T07:25:45;99429.84;;;22.09;85.34
55576;BME280;41437;45.478;9.116;2022-09-09T07:28:48;99428.75;;;21.89;85.99
55576;BME280;41437;45.478;9.116;2022-09-09T07:31:49;99429.38;;;22.07;84.46
55576;BME280;41437;45.478;9.116;2022-09-09T07:34:52;99428.75;;;22.35;83.27
55576;BME280;41437;45.478;9.116;2022-09-09T07:37:54;99425.81;;;22.80;81.79
55576;BME280;41437;45.478;9.116;2022-09-09T07:41:03;99419.13;;;23.09;80.25
55576;BME280;41437;45.478;9.116;2022-09-09T07:44:06;99423.25;;;23.40;78.37
55576;BME280;41437;45.478;9.116;2022-09-09T07:47:08;99431.44;;;23.45;76.74
55576;BME280;41437;45.478;9.116;2022-09-09T07:50:11;99425.59;;;23.38;77.06
55576;BME280;41437;45.478;9.116;2022-09-09T07:53:15;99424.69;;;23.62;74.90
55576;BME280;41437;45.478;9.116;2022-09-09T07:56:18;99420.72;;;23.91;73.73
55576;BME280;41437;45.478;9.116;2022-09-09T07:59:22;99431.16;;;23.90;72.69
55576;BME280;41437;45.478;9.116;2022-09-09T08:02:24;99437.97;;;24.05;72.49
55576;BME280;41437;45.478;9.116;2022-09-09T08:05:30;99442.63;;;24.29;70.66
55576;BME280;41437;45.478;9.116;2022-09-09T08:08:33;99439.47;;;24.46;69.66
55576;BME280;41437;45.478;9.116;2022-09-09T08:11:35;99442.72;;;24.32;69.77
55576;BME280;41437;45.478;9.116;2022-09-09T08:14:37;99451.94;;;24.61;69.00
55576;BME280;41437;45.478;9.116;2022-09-09T08:17:40;99437.78;;;24.93;68.11
55576;BME280;41437;45.478;9.116;2022-09-09T08:20:44;99448.69;;;25.10;66.96
55576;BME280;41437;45.478;9.116;2022-09-09T08:23:46;99444.25;;;24.93;66.12
55576;BME280;41437;45.478;9.116;2022-09-09T08:26:49;99439.91;;;24.80;65.97
55576;BME280;41437;45.478;9.116;2022-09-09T08:29:50;99449.81;;;24.74;65.43
55576;BME280;41437;45.478;9.116;2022-09-09T08:32:52;99441.88;;;24.95;65.76
55576;BME280;41437;45.478;9.116;2022-09-09T08:35:57;99458.72;;;25.27;64.42
55576;BME280;41437;45.478;9.116;2022-09-09T08:39:00;99448.72;;;25.29;63.32
55576;BME280;41437;45.478;9.116;2022-09-09T08:42:26;99452.66;;;25.44;63.73
55576;BME280;41437;45.478;9.116;2022-09-09T08:45:34;99459.66;;;25.70;62.46
55576;BME280;41437;45.478;9.116;2022-09-09T08:48:52;99463.69;;;25.33;61.93
55576;BME280;41437;45.478;9.116;2022-09-09T08:52:08;99453.59;;;25.13;62.85
55576;BME280;41437;45.478;9.116;2022-09-09T08:55:21;99465.50;;;25.42;61.41
55576;BME280;41437;45.478;9.116;2022-09-09T08:58:26;99465.44;;;25.57;61.74
55576;BME280;41437;45.478;9.116;2022-09-09T09:01:41;99463.06;;;25.60;60.54
55576;BME280;41437;45.478;9.116;2022-09-09T09:05:11;99470.44;;;25.84;60.63
55576;BME280;41437;45.478;9.116;2022-09-09T09:08:26;99483.13;;;26.13;58.74
55576;BME280;41437;45.478;9.116;2022-09-09T09:15:11;99488.06;;;26.42;57.29
55576;BME280;41437;45.478;9.116;2022-09-09T09:18:16;99483.53;;;26.34;57.40
55576;BME280;41437;45.478;9.116;2022-09-09T09:21:21;99481.59;;;26.19;57.33
55576;BME280;41437;45.478;9.116;2022-09-09T09:24:32;99492.41;;;25.94;57.96
55576;BME280;41437;45.478;9.116;2022-09-09T09:27:39;99476.13;;;25.48;59.14
55576;BME280;41437;45.478;9.116;2022-09-09T09:30:44;99474.50;;;25.67;58.36
55576;BME280;41437;45.478;9.116;2022-09-09T09:33:49;99474.22;;;25.17;58.82
55576;BME280;41437;45.478;9.116;2022-09-09T09:36:54;99471.78;;;25.00;57.50
55576;BME280;41437;45.478;9.116;2022-09-09T09:40:09;99469.94;;;25.23;55.45
55576;BME280;41437;45.478;9.116;2022-09-09T09:43:21;99483.13;;;25.93;53.46
55576;BME280;41437;45.478;9.116;2022-09-09T09:46:26;99479.88;;;25.91;52.24
55576;BME280;41437;45.478;9.116;2022-09-09T09:49:27;99488.06;;;26.19;49.63
55576;BME280;41437;45.478;9.116;2022-09-09T09:52:30;99487.56;;;25.75;51.99
55576;BME280;41437;45.478;9.116;2022-09-09T09:55:36;99483.09;;;25.54;51.06
55576;BME280;41437;45.478;9.116;2022-09-09T09:58:49;99482.59;;;25.49;50.91
55576;BME280;41437;45.478;9.116;2022-09-09T10:01:54;99471.75;;;25.70;48.33
55576;BME280;41437;45.478;9.116;2022-09-09T10:05:18;99489.34;;;26.02;48.80
55576;BME280;41437;45.478;9.116;2022-09-09T10:08:27;99485.66;;;26.41;47.16
55576;BME280;41437;45.478;9.116;2022-09-09T10:11:40;99489.53;;;26.52;46.19
55576;BME280;41437;45.478;9.116;2022-09-09T10:14:51;99479.19;;;26.40;47.84
55576;BME280;41437;45.478;9.116;2022-09-09T10:18:04;99473.06;;;26.58;48.57
55576;BME280;41437;45.478;9.116;2022-09-09T10:25:26;99473.31;;;26.98;46.79
55576;BME280;41437;45.478;9.116;2022-09-09T10:28:51;99481.66;;;27.14;46.50
55576;BME280;41437;45.478;9.116;2022-09-09T10:32:11;99471.97;;;27.15;47.14
55576;BME280;41437;45.478;9.116;2022-09-09T10:35:25;99476.59;;;27.00;46.12
55576;BME280;41437;45.478;9.116;2022-09-09T10:38:30;99471.34;;;27.25;46.83
55576;BME280;41437;45.478;9.116;2022-09-09T10:41:45;99470.34;;;27.14;46.20
55576;BME280;41437;45.478;9.116;2022-09-09T10:45:01;99472.44;;;27.17;46.27
55576;BME280;41437;45.478;9.116;2022-09-09T10:48:39;99471.47;;;27.36;45.56
55576;BME280;41437;45.478;9.116;2022-09-09T10:51:53;99468.84;;;26.97;46.03
55576;BME280;41437;45.478;9.116;2022-09-09T10:55:00;99457.56;;;27.54;44.33
55576;BME280;41437;45.478;9.116;2022-09-09T10:58:05;99453.44;;;27.18;44.77
55576;BME280;41437;45.478;9.116;2022-09-09T11:01:15;99451.22;;;27.07;46.17
55576;BME280;41437;45.478;9.116;2022-09-09T11:04:21;99448.38;;;27.04;46.50
55576;BME280;41437;45.478;9.116;2022-09-09T11:07:29;99438.78;;;27.12;46.14
55576;BME280;41437;45.478;9.116;2022-09-09T11:10:39;99428.81;;;27.18;45.60
55576;BME280;41437;45.478;9.116;2022-09-09T11:13:46;99430.25;;;27.69;44.82
55576;BME280;41437;45.478;9.116;2022-09-09T11:16:56;99429.66;;;28.23;44.47
55576;BME280;41437;45.478;9.116;2022-09-09T11:20:11;99423.59;;;28.21;44.02
55576;BME280;41437;45.478;9.116;2022-09-09T11:23:15;99430.78;;;28.52;43.63
55576;BME280;41437;45.478;9.116;2022-09-09T11:26:30;99424.47;;;28.77;42.93
55576;BME280;41437;45.478;9.116;2022-09-09T11:33:46;99425.25;;;28.70;42.05
55576;BME280;41437;45.478;9.116;2022-09-09T11:37:03;99416.75;;;28.70;43.03
55576;BME280;41437;45.478;9.116;2022-09-09T11:40:19;99430.31;;;28.98;42.37
55576;BME280;41437;45.478;9.116;2022-09-09T11:43:24;99426.31;;;29.03;40.79
55576;BME280;41437;45.478;9.116;2022-09-09T11:46:45;99418.38;;;28.71;42.43
55576;BME280;41437;45.478;9.116;2022-09-09T11:49:55;99420.75;;;28.25;43.23
55576;BME280;41437;45.478;9.116;2022-09-09T11:53:22;99419.41;;;27.11;44.91
55576;BME280;41437;45.478;9.116;2022-09-09T11:56:26;99432.22;;;26.78;46.88
55576;BME280;41437;45.478;9.116;2022-09-09T11:59:32;99410.56;;;26.63;46.45
55576;BME280;41437;45.478;9.116;2022-09-09T12:02:35;99405.56;;;26.52;47.95
55576;BME280;41437;45.478;9.116;2022-09-09T12:05:40;99406.00;;;26.81;45.84
55576;BME280;41437;45.478;9.116;2022-09-09T12:08:47;99401.75;;;27.21;44.92
55576;BME280;41437;45.478;9.116;2022-09-09T12:11:53;99396.22;;;27.95;43.63
55576;BME280;41437;45.478;9.116;2022-09-09T12:15:24;99412.41;;;28.87;41.45
55576;BME280;41437;45.478;9.116;2022-09-09T12:22:28;99385.97;;;29.42;40.75
55576;BME280;41437;45.478;9.116;2022-09-09T12:25:41;99408.16;;;30.20;39.18
55576;BME280;41437;45.478;9.116;2022-09-09T12:28:55;99397.31;;;28.72;40.42
55576;BME280;41437;45.478;9.116;2022-09-09T12:32:05;99386.78;;;29.35;40.52
55576;BME280;41437;45.478;9.116;2022-09-09T12:35:11;99381.25;;;29.71;39.98
55576;BME280;41437;45.478;9.116;2022-09-09T12:38:22;99387.00;;;30.10;39.29
55576;BME280;41437;45.478;9.116;2022-09-09T12:41:27;99382.13;;;30.00;39.02
55576;BME280;41437;45.478;9.116;2022-09-09T12:44:30;99375.59;;;29.74;39.89
55576;BME280;41437;45.478;9.116;2022-09-09T12:47:36;99373.19;;;29.87;39.74
55576;BME280;41437;45.478;9.116;2022-09-09T12:50:44;99379.69;;;29.91;38.96
55576;BME280;41437;45.478;9.116;2022-09-09T12:53:48;99365.47;;;30.13;39.00
55576;BME280;41437;45.478;9.116;2022-09-09T12:56:50;99366.75;;;30.22;38.99
55576;BME280;41437;45.478;9.116;2022-09-09T12:59:52;99359.03;;;30.34;38.03
55576;BME280;41437;45.478;9.116;2022-09-09T13:02:56;99363.91;;;30.40;37.79
55576;BME280;41437;45.478;9.116;2022-09-09T13:06:11;99357.00;;;30.20;37.56
55576;BME280;41437;45.478;9.116;2022-09-09T13:09:14;99349.69;;;30.29;37.69
55576;BME280;41437;45.478;9.116;2022-09-09T13:12:19;99351.28;;;30.05;37.62
55576;BME280;41437;45.478;9.116;2022-09-09T13:15:24;99333.09;;;29.01;39.22
55576;BME280;41437;45.478;9.116;2022-09-09T13:18:30;99326.22;;;29.02;39.25
55576;BME280;41437;45.478;9.116;2022-09-09T13:21:36;99337.97;;;29.01;38.91
55576;BME280;41437;45.478;9.116;2022-09-09T13:24:39;99339.88;;;28.90;38.54
55576;BME280;41437;45.478;9.116;2022-09-09T13:27:52;99323.63;;;28.76;38.73
55576;BME280;41437;45.478;9.116;2022-09-09T13:30:57;99321.66;;;28.87;39.12
55576;BME280;41437;45.478;9.116;2022-09-09T13:34:11;99320.63;;;29.24;38.35
55576;BME280;41437;45.478;9.116;2022-09-09T13:37:20;99325.19;;;29.53;37.84
55576;BME280;41437;45.478;9.116;2022-09-09T13:40:25;99327.69;;;29.76;36.52
55576;BME280;41437;45.478;9.116;2022-09-09T13:43:28;99333.06;;;30.35;36.18
55576;BME280;41437;45.478;9.116;2022-09-09T13:46:31;99324.53;;;30.32;35.05
55576;BME280;41437;45.478;9.116;2022-09-09T13:49:33;99325.75;;;30.27;35.30
55576;BME280;41437;45.478;9.116;2022-09-09T13:52:34;99331.41;;;30.05;35.83
55576;BME280;41437;45.478;9.116;2022-09-09T13:55:40;99326.91;;;30.12;36.02
55576;BME280;41437;45.478;9.116;2022-09-09T13:58:42;99317.63;;;30.22;35.25
55576;BME280;41437;45.478;9.116;2022-09-09T14:01:43;99315.59;;;30.15;34.93
55576;BME280;41437;45.478;9.116;2022-09-09T14:04:45;99310.72;;;30.19;35.25
55576;BME280;41437;45.478;9.116;2022-09-09T14:07:50;99309.50;;;29.95;35.31
55576;BME280;41437;45.478;9.116;2022-09-09T14:10:56;99300.56;;;29.97;34.55
55576;BME280;41437;45.478;9.116;2022-09-09T14:13:59;99298.94;;;30.21;34.96
55576;BME280;41437;45.478;9.116;2022-09-09T14:17:03;99289.22;;;30.22;33.79
55576;BME280;41437;45.478;9.116;2022-09-09T14:20:07;99292.38;;;29.60;35.37
55576;BME280;41437;45.478;9.116;2022-09-09T14:23:10;99289.44;;;29.27;34.98
55576;BME280;41437;45.478;9.116;2022-09-09T14:26:13;99275.66;;;29.33;35.53
55576;BME280;41437;45.478;9.116;2022-09-09T14:29:15;99277.47;;;28.86;35.74
55576;BME280;41437;45.478;9.116;2022-09-09T14:32:17;99280.47;;;29.15;35.70
55576;BME280;41437;45.478;9.116;2022-09-09T14:35:18;99283.88;;;29.67;35.12
55576;BME280;41437;45.478;9.116;2022-09-09T14:38:20;99274.59;;;29.88;34.92
55576;BME280;41437;45.478;9.116;2022-09-09T14:41:23;99279.78;;;29.53;35.03
55576;BME280;41437;45.478;9.116;2022-09-09T14:44:25;99282.69;;;29.89;35.48
55576;BME280;41437;45.478;9.116;2022-09-09T14:47:27;99277.81;;;29.83;35.51
55576;BME280;41437;45.478;9.116;2022-09-09T14:50:29;99292.84;;;29.97;34.23
55576;BME280;41437;45.478;9.116;2022-09-09T14:53:31;99284.72;;;29.99;34.00
55576;BME280;41437;45.478;9.116;2022-09-09T14:56:34;99277.84;;;30.04;35.09
55576;BME280;41437;45.478;9.116;2022-09-09T14:59:35;99279.84;;;29.61;34.39
55576;BME280;41437;45.478;9.116;2022-09-09T15:02:37;99273.63;;;29.34;35.40
55576;BME280;41437;45.478;9.116;2022-09-09T15:05:39;99281.84;;;29.57;35.37
55576;BME280;41437;45.478;9.116;2022-09-09T15:08:42;99283.47;;;29.68;34.97
55576;BME280;41437;45.478;9.116;2022-09-09T15:11:46;99287.53;;;29.67;34.21
55576;BME280;41437;45.478;9.116;2022-09-09T15:14:47;99287.97;;;30.01;33.73
55576;BME280;41437;45.478;9.116;2022-09-09T15:17:50;99286.34;;;29.83;33.67
55576;BME280;41437;45.478;9.116;2022-09-09T15:20:52;99279.81;;;29.68;33.13
55576;BME280;41437;45.478;9.116;2022-09-09T15:23:54;99283.47;;;29.72;33.39
55576;BME280;41437;45.478;9.116;2022-09-09T15:26:57;99278.16;;;29.49;33.41
55576;BME280;41437;45.478;9.116;2022-09-09T15:29:59;99270.84;;;29.55;33.22
55576;BME280;41437;45.478;9.116;2022-09-09T15:33:01;99272.47;;;29.52;33.65
55576;BME280;41437;45.478;9.116;2022-09-09T15:36:12;99259.88;;;29.46;34.74
55576;BME280;41437;45.478;9.116;2022-09-09T15:39:17;99261.97;;;29.57;34.35
55576;BME280;41437;45.478;9.116;2022-09-09T15:42:20;99249.72;;;29.31;35.16
55576;BME280;41437;45.478;9.116;2022-09-09T15:45:21;99248.50;;;29.28;34.62
55576;BME280;41437;45.478;9.116;2022-09-09T15:48:29;99249.75;;;29.45;35.54
55576;BME280;41437;45.478;9.116;2022-09-09T15:51:32;99250.22;;;29.76;34.67
55576;BME280;41437;45.478;9.116;2022-09-09T15:54:34;99242.13;;;29.71;35.23
55576;BME280;41437;45.478;9.116;2022-09-09T15:57:38;99248.59;;;29.86;34.35
55576;BME280;41437;45.478;9.116;2022-09-09T16:00:39;99248.22;;;29.87;34.23
55576;BME280;41437;45.478;9.116;2022-09-09T16:03:41;99249.00;;;29.70;34.27
55576;BME280;41437;45.478;9.116;2022-09-09T16:06:43;99239.25;;;29.60;34.66
55576;BME280;41437;45.478;9.116;2022-09-09T16:09:44;99239.66;;;29.59;34.89
55576;BME280;41437;45.478;9.116;2022-09-09T16:12:47;99248.97;;;29.52;34.40
55576;BME280;41437;45.478;9.116;2022-09-09T16:15:53;99244.53;;;29.62;34.88
55576;BME280;41437;45.478;9.116;2022-09-09T16:18:57;99238.47;;;29.74;34.13
55576;BME280;41437;45.478;9.116;2022-09-09T16:21:59;99239.69;;;29.87;34.35
55576;BME280;41437;45.478;9.116;2022-09-09T16:25:01;99249.81;;;29.70;34.36
55576;BME280;41437;45.478;9.116;2022-09-09T16:28:05;99242.91;;;29.68;34.07
55576;BME280;41437;45.478;9.116;2022-09-09T16:31:06;99237.59;;;29.48;34.21
55576;BME280;41437;45.478;9.116;2022-09-09T16:34:09;99245.69;;;29.39;34.27
55576;BME280;41437;45.478;9.116;2022-09-09T16:37:11;99245.25;;;29.23;33.91